Latest Coastal Weather Observations for Bellambi

IDN60701

Issued at 7:11 pm EST Sunday 9 August 2020 (issued every 10 minutes, with the page automatically refreshed every 10 minutes)

About coastal observations | Map of coastal stations | Coastal observations for NSW | Marine services | Other Formats
Station Details ID: 068228 Name: BELLAMBI AWS Lat: -34.37 Lon: 150.93 Height: 10.0 m
Data from the previous 72 hours. | See also: Recent months at Bellambi
Date/Time
EST
Wind Sea
Height
m
Swell Vis
km
Cloud Weather Temp
°C
Press
hPa
Rain since
9am
mm
Dir  Spd
kts
Gust
kts
Height
m
Period
s
Dir
09/07:00pm S 40 52 - - - - - Cloudy - 15.0 - 49.2
09/06:54pm S 43 54 - - - - - Partly cloudy - 14.8 - 49.2
09/06:30pm SSW 39 57 - - - - - Partly cloudy - 13.6 - 49.2
09/06:29pm SSW 37 57 - - - - - Partly cloudy - 13.5 - 49.2
09/06:01pm SSW 33 43 - - - - - Partly cloudy - 12.7 - 43.6
09/06:00pm SSW 34 43 - - - - - Cloudy Rain 12.8 - 43.4
09/05:58pm SSW 33 43 - - - - - Partly cloudy - 12.9 - 43.2
09/05:54pm SSW 32 43 - - - - - Partly cloudy - 12.9 - 42.8
09/05:45pm SSW 33 43 - - - - - Partly cloudy - 12.8 - 42.2
09/05:33pm SSW 33 47 - - - - - Partly cloudy - 12.3 - 41.4
09/05:30pm SSW 30 47 - - - - - Partly cloudy - 12.4 - 41.4
09/05:12pm SSW 29 47 - - - - - Partly cloudy - 12.9 - 38.0
09/05:00pm SSW 31 38 - - - - - Partly cloudy - 12.9 - 36.8
09/04:30pm S 32 40 - - - - - Partly cloudy - 12.9 - 33.8
09/04:01pm S 27 37 - - - - - Partly cloudy - 12.7 - 31.6
09/04:00pm S 28 37 - - - - - Partly cloudy - 12.6 - 31.4
09/03:32pm SSE 25 35 - - - - - Partly cloudy - 12.6 - 28.8
09/03:30pm SSE 26 35 - - - - - Partly cloudy - 12.7 - 28.6
09/03:04pm SSE 24 30 - - - - - Partly cloudy - 12.7 - 24.4
09/03:00pm SE 23 27 - - - - - Cloudy Rain 13.3 - 23.8
09/02:46pm SSE 20 28 - - - - - Partly cloudy - 13.1 - 22.6
09/02:30pm SSE 22 29 - - - - - Partly cloudy - 13.0 - 21.6
09/02:21pm SSE 19 24 - - - - - Partly cloudy - 12.7 - 21.2
09/02:14pm SE 18 24 - - - - - Partly cloudy - 13.0 - 19.6
09/02:00pm SE 20 27 - - - - - Partly cloudy - 12.9 - 18.4
09/01:59pm SE 20 27 - - - - - Partly cloudy - 12.8 - 18.2
09/01:47pm S 20 27 - - - - - Partly cloudy - 12.6 - 17.8
09/01:36pm SW 18 36 - - - - - Partly cloudy - 10.9 - 16.6
09/01:30pm WSW 18 36 - - - - - Partly cloudy - 11.1 - 15.6
09/01:28pm WSW 15 30 - - - - - Partly cloudy - 10.8 - 15.4
09/01:00pm WSW 11 15 - - - - - Partly cloudy - 11.2 - 10.8
09/12:55pm WSW 10 14 - - - - - Partly cloudy - 11.3 - 10.0
09/12:30pm SW 12 15 - - - - - Partly cloudy - 11.2 - 7.6
09/12:05pm SW 6 10 - - - - - Partly cloudy - 11.1 - 4.0
09/12:00pm WSW 6 8 - - - - - Cloudy Rain 11.1 - 3.4
09/11:30am WSW 6 9 - - - - - Partly cloudy - 11.6 - 2.0
09/11:00am W 6 7 - - - - - Partly cloudy - 13.6 - 0.0
09/10:30am NW 6 7 - - - - - Partly cloudy - 13.3 - 0.0
09/10:00am SW 5 9 - - - - - Partly cloudy - 12.9 - 0.0
09/09:30am WNW 4 5 - - - - - Partly cloudy - 12.4 - 0.0
09/09:00am CALM 0 0 - - - - - Cloudy - 10.7 - 23.6
09/08:30am WNW 3 4 - - - - - Partly cloudy - 10.1 - 23.6
09/08:00am WNW 5 6 - - - - - Cloudy - 10.0 - 23.6
09/07:30am W 3 5 - - - - - Cloudy - 9.4 - 23.6
09/07:00am CALM 0 0 - - - - - Partly cloudy - 9.2 - 23.6
09/06:30am WNW 3 5 - - - - - Partly cloudy - 9.1 - 23.6
09/06:00am WNW 4 5 - - - - - Cloudy - 9.5 - 23.6
09/05:30am WNW 7 9 - - - - - Partly cloudy - 9.5 - 23.6
09/05:00am WNW 7 12 - - - - - - - 9.5 - 23.6
09/04:30am W 7 13 - - - - - Partly cloudy - 9.8 - 23.6
09/04:00am W 10 16 - - - - - - - 10.1 - 23.6
09/03:30am WNW 6 9 - - - - - Partly cloudy - 10.3 - 23.6
09/03:00am W 7 10 - - - - - Cloudy Recent precip. 10.4 - 23.6
09/02:30am W 6 9 - - - - - Partly cloudy - 10.5 - 23.6
09/02:00am W 9 12 - - - - - Partly cloudy - 10.8 - 23.4
09/01:30am WSW 6 9 - - - - - Partly cloudy - 10.9 - 23.2
09/01:00am WSW 7 9 - - - - - Cloudy - 11.0 - 23.0
09/12:30am WSW 7 11 - - - - - Partly cloudy - 11.1 - 23.0
09/12:00am W 6 8 - - - - - Cloudy - 11.3 - 23.0
 
Date/Time
EST
Wind Sea
Height
m
Swell Vis
km
Cloud Weather Temp
°C
Press
hPa
Rain since
9am
mm
Dir  Spd
kts
Gust
kts
Height
m
Period
s
Dir
08/11:30pm WNW 7 10 - - - - - Partly cloudy - 11.7 - 23.0
08/11:00pm WNW 7 11 - - - - - Partly cloudy - 11.8 - 23.0
08/10:30pm NNW 8 11 - - - - - Partly cloudy - 12.4 - 22.6
08/10:00pm WSW 5 7 - - - - - Partly cloudy - 12.6 - 22.2
08/09:30pm WSW 6 9 - - - - - Partly cloudy - 12.4 - 22.0
08/09:00pm W 8 11 - - - - - Cloudy Rain 12.0 - 20.2
08/08:30pm SW 1 5 - - - - - Partly cloudy - 13.8 - 9.6
08/08:00pm SE 15 17 - - - - - Partly cloudy - 14.5 - 9.6
08/07:33pm ESE 16 20 - - - - - Partly cloudy - 14.6 - 9.4
08/07:30pm ESE 17 20 - - - - - Partly cloudy - 14.6 - 9.4
08/07:00pm E 16 20 - - - - - Partly cloudy - 14.8 - 9.4
08/06:30pm ENE 9 11 - - - - - Partly cloudy - 14.6 - 9.4
08/06:00pm ENE 6 7 - - - - - Cloudy - 14.6 - 9.4
08/05:30pm NW 3 5 - - - - - Partly cloudy - 14.2 - 9.4
08/05:22pm NW 4 6 - - - - - Partly cloudy - 14.3 - 9.4
08/05:08pm NW 3 4 - - - - - Partly cloudy - 14.8 - 9.4
08/05:00pm CALM 0 3 - - - - - Partly cloudy - 14.8 - 9.4
08/04:30pm NW 3 6 - - - - - Partly cloudy - 15.0 - 9.4
08/04:00pm NW 5 6 - - - - - Cloudy - 15.4 - 9.4
08/03:30pm NW 8 11 - - - - - Cloudy - 15.5 - 9.4
08/03:00pm NW 5 8 - - - - - Cloudy - 15.7 - 9.4
08/02:30pm NW 5 6 - - - - - Partly cloudy - 15.8 - 9.4
08/02:00pm NW 5 9 - - - - - Partly cloudy - 15.7 - 9.4
08/01:30pm NNW 3 5 - - - - - Partly cloudy - 15.8 - 9.4
08/01:00pm NNE 4 6 - - - - - Partly cloudy - 15.5 - 9.4
08/12:30pm NNE 5 8 - - - - - Partly cloudy - 15.1 - 9.4
08/12:00pm N 8 10 - - - - - Cloudy - 15.2 - 9.4
08/11:59am N 8 10 - - - - - Partly cloudy - 15.3 - 9.4
08/11:30am ENE 12 15 - - - - - Partly cloudy - 15.9 - 9.4
08/11:27am E 13 16 - - - - - Partly cloudy - 15.7 - 9.4
08/11:08am E 16 18 - - - - - Partly cloudy - 15.6 - 9.4
08/11:00am ESE 17 19 - - - - - Partly cloudy - 15.6 - 9.4
08/10:30am ESE 19 21 - - - - - Partly cloudy - 15.3 - 9.2
08/10:00am ESE 19 26 - - - - - Partly cloudy - 15.0 - 8.4
08/09:57am ESE 19 26 - - - - - Partly cloudy - 14.9 - 8.4
08/09:30am ESE 17 23 - - - - - Partly cloudy - 14.7 - 3.8
08/09:26am SSE 11 22 - - - - - Partly cloudy - 14.5 - 3.0
08/09:00am SSW 8 11 - - - - - Cloudy Rain 13.0 - 72.2
08/08:30am SW 6 10 - - - - - Partly cloudy - 13.0 - 65.2
08/08:00am S 6 8 - - - - - Cloudy - 13.4 - 62.8
08/07:34am S 11 14 - - - - - Partly cloudy - 13.5 - 62.6
08/07:30am S 11 13 - - - - - Partly cloudy - 13.3 - 62.4
08/07:00am SSW 6 7 - - - - - Partly cloudy - 13.2 - 59.0
08/06:30am SSW 8 10 - - - - - Partly cloudy - 13.2 - 59.0
08/06:00am SSW 7 9 - - - - - Cloudy - 13.0 - 59.0
08/05:30am SW 7 8 - - - - - Cloudy - 12.5 - 59.0
08/05:00am SW 7 8 - - - - - Cloudy - 12.7 - 59.0
08/04:30am WSW 6 7 - - - - - Cloudy - 12.8 - 59.0
08/04:00am WSW 7 8 - - - - - Cloudy - 12.6 - 59.0
08/03:48am WSW 6 8 - - - - - Partly cloudy - 12.5 - 59.0
08/03:30am SW 5 6 - - - - - Partly cloudy - 12.6 - 59.0
08/03:12am SW 6 8 - - - - - Partly cloudy - 12.7 - 59.0
08/03:00am SSW 7 8 - - - - - Cloudy - 13.3 - 59.0
08/02:30am SSW 6 8 - - - - - Partly cloudy - 12.9 - 59.0
08/02:00am WSW 6 7 - - - - - Partly cloudy - 12.5 - 59.0
08/01:43am WSW 6 9 - - - - - Partly cloudy - 12.5 - 59.0
08/01:30am WSW 7 9 - - - - - Partly cloudy - 12.4 - 58.6
08/01:00am SW 7 10 - - - - - Cloudy - 12.3 - 57.4
08/12:30am SSW 9 10 - - - - - Cloudy - 12.8 - 57.2
08/12:07am SSW 9 12 - - - - - Partly cloudy - 13.0 - 57.0
08/12:00am SSW 9 12 - - - - - Mostly cloudy Rain 13.0 - 57.0
 
Date/Time
EST
Wind Sea
Height
m
Swell Vis
km
Cloud Weather Temp
°C
Press
hPa
Rain since
9am
mm
Dir  Spd
kts
Gust
kts
Height
m
Period
s
Dir
07/11:44pm SSW 6 8 - - - - - Partly cloudy - 13.1 - 56.8
07/11:30pm WSW 5 6 - - - - - Partly cloudy - 12.7 - 56.6
07/11:06pm SW 3 5 - - - - - Partly cloudy - 13.1 - 56.6
07/11:00pm SW 2 5 - - - - - Partly cloudy - 13.2 - 56.6
07/10:38pm WSW 6 9 - - - - - Partly cloudy - 12.7 - 56.2
07/10:30pm WSW 5 6 - - - - - Partly cloudy - 12.7 - 56.2
07/10:00pm ENE 14 18 - - - - - Partly cloudy - 13.3 - 52.8
07/09:46pm ESE 15 22 - - - - - Cloudy - 13.6 - 51.0
07/09:30pm SW 3 5 - - - - - Cloudy - 12.8 - 48.6
07/09:00pm NW 7 9 - - - - - Cloudy Rain 12.8 - 40.4
07/08:30pm NNE 10 15 - - - - - Partly cloudy - 13.1 - 36.0
07/08:26pm N 9 15 - - - - - Partly cloudy - 13.1 - 35.8
07/08:23pm NNW 8 13 - - - - - Partly cloudy - 13.1 - 35.6
07/08:00pm E 14 17 - - - - - Partly cloudy - 13.6 - 31.8
07/07:30pm N 5 7 - - - - - Partly cloudy - 12.9 - 25.0
07/07:00pm NNE 10 13 - - - - - Partly cloudy - 13.3 - 19.8
07/06:40pm E 14 17 - - - - - Partly cloudy - 13.5 - 18.8
07/06:30pm E 15 17 - - - - - Partly cloudy - 13.4 - 18.2
07/06:17pm E 19 23 - - - - - Partly cloudy - 13.5 - 16.8
07/06:00pm E 19 23 - - - - - Cloudy Rain 13.4 - 15.6
07/05:39pm E 17 19 - - - - - Partly cloudy - 13.6 - 14.2
07/05:30pm E 19 21 - - - - - Partly cloudy - 13.4 - 13.8
07/05:20pm E 17 21 - - - - - Partly cloudy - 13.5 - 13.0
07/05:02pm ESE 16 19 - - - - - Partly cloudy - 13.5 - 12.2
07/05:00pm ESE 16 19 - - - - - Partly cloudy - 13.4 - 12.0
07/04:30pm ESE 15 17 - - - - - Partly cloudy - 13.1 - 11.4
07/04:00pm E 15 17 - - - - - Partly cloudy - 12.9 - 10.2
07/03:30pm E 16 18 - - - - - Partly cloudy - 13.0 - 9.0
07/03:00pm E 15 18 - - - - - Cloudy Rain 13.1 - 7.6
07/02:30pm SE 11 14 - - - - - Partly cloudy - 13.2 - 6.2
07/02:00pm ESE 11 13 - - - - - Partly cloudy - 12.7 - 5.8
07/01:30pm SSW 6 10 - - - - - Partly cloudy - 11.6 - 5.0
07/01:00pm WSW 9 12 - - - - - Partly cloudy - 11.6 - 4.2
07/12:30pm WSW 10 13 - - - - - Partly cloudy - 11.5 - 3.8
07/12:00pm SW 7 9 - - - - - Cloudy Rain 11.7 - 3.6
07/11:30am SW 9 12 - - - - - Partly cloudy - 11.4 - 3.4
07/11:00am SW 10 12 - - - - - Partly cloudy - 11.2 - 3.0
07/10:30am SW 10 12 - - - - - Partly cloudy - 11.1 - 2.6
07/10:24am SW 9 12 - - - - - Partly cloudy - 11.1 - 2.4
07/10:11am SW 9 13 - - - - - Partly cloudy - 11.1 - 2.0
07/10:08am SW 9 14 - - - - - Partly cloudy - 11.0 - 2.0
07/10:00am SW 10 14 - - - - - Partly cloudy - 11.1 - 2.0
07/09:30am SW 6 11 - - - - - Partly cloudy - 11.0 - 1.6
07/09:22am WSW 6 8 - - - - - Partly cloudy - 10.8 - 1.0
07/09:00am SW 8 11 - - - - - Cloudy Rain 10.7 - 1.0
07/08:30am SW 8 10 - - - - - Partly cloudy - 10.7 - 0.6
07/08:00am SW 8 11 - - - - - Partly cloudy - 10.6 - 0.4
07/07:30am SW 7 9 - - - - - Partly cloudy - 10.2 - 0.4
07/07:00am SW 9 12 - - - - - Partly cloudy - 10.5 - 0.2
07/06:30am SSW 9 15 - - - - - Partly cloudy - 11.6 - 0.0
07/06:00am WSW 8 10 - - - - - Mostly cloudy - 11.2 - 0.0
07/05:30am SW 7 9 - - - - - Partly cloudy - 11.5 - 0.0
07/05:00am SW 7 10 - - - - - Partly cloudy - 11.5 - 0.0
07/04:30am SW 7 9 - - - - - Partly cloudy - 11.2 - 0.0
07/04:00am SW 8 11 - - - - - Partly cloudy - 11.0 - 0.0
07/03:30am SW 8 10 - - - - - Partly cloudy - 10.9 - 0.0
07/03:00am SW 7 9 - - - - - Cloudy - 10.7 - 0.0
07/02:30am SW 8 9 - - - - - - - 10.6 - 0.0
07/02:00am SW 8 10 - - - - - - - 10.4 - 0.0
07/01:30am SW 7 9 - - - - - - - 10.3 - 0.0
07/01:00am SW 7 9 - - - - - - - 10.5 - 0.0
07/12:30am WSW 6 7 - - - - - - - 10.2 - 0.0
07/12:00am SW 6 7 - - - - - Cloudy - 10.6 - 0.0
 
Date/Time
EST
Wind Sea
Height
m
Swell Vis
km
Cloud Weather Temp
°C
Press
hPa
Rain since
9am
mm
Dir  Spd
kts
Gust
kts
Height
m
Period
s
Dir
06/11:30pm W 5 6 - - - - - Partly cloudy - 10.5 - 0.0
06/11:00pm WSW 6 6 - - - - - Partly cloudy - 10.2 - 0.0
06/10:30pm WSW 6 7 - - - - - Partly cloudy - 10.0 - 0.0
06/10:00pm W 6 6 - - - - - Partly cloudy - 9.9 - 0.0
06/09:30pm W 6 7 - - - - - Partly cloudy - 9.9 - 0.0
06/09:00pm W 7 8 - - - - - - - 9.5 - 0.0
06/08:30pm WSW 7 8 - - - - - Partly cloudy - 9.8 - 0.0
06/08:00pm WSW 5 6 - - - - - Partly cloudy - 10.2 - 0.0
06/07:30pm SSE 10 13 - - - - - - - 12.7 - 0.0

Other formats

Comma delimited format used in spreadsheet applications
http://www.bom.gov.au/fwo/IDN60701/IDN60701.94749.axf

JavaScript Object Notation format (JSON) in row-major order
http://www.bom.gov.au/fwo/IDN60701/IDN60701.94749.json

Data quality

Most of these data are generated automatically and are frequently updated. Quality checks on data are not normally performed. It is possible for incorrect values to appear. Refer to information at About Latest Weather Observations and please check the disclaimer before using these data.